Cocos Island, Australian Islands

10:20 PM CCT on September 27, 2016 (GMT +0630)
Kite Beach | | Change Station

Elev 0 ft 12.19 °S, 96.86 °E | Updated 14 minutes ago

Mostly Cloudy
Mostly Cloudy
77.7 °F
Feels Like 80 °F
N
15.0
Wind Variable Wind from NW
Gusts 23.0 mph

Today
High -- | Low -- °F
--% Chance of Precip.
Yesterday
High -- | Low -- °F
Precip. -- in
Pressure 29.95 in
Visibility -9999.0 miles
Clouds Mostly Cloudy 2400 ft
Mostly Cloudy 2800 ft
Heat Index 80 °F
Dew Point 71 °F
Humidity 81%
Rainfall in
Snow Depth Not available.
5:48 AM 5:58 PM
Waning Crescent, 11% visible
METAR YPCC 271530Z AUTO 14022KT //// // BKN024 BKN028 25/20 Q1014
Pressure 29.95 in
Visibility -9999.0 miles
Clouds Mostly Cloudy 2400 ft
Mostly Cloudy 2800 ft
Heat Index 80 °F
Dew Point 71 °F
Humidity 81%
Rainfall in
Snow Depth Not available.
5:48 AM 5:58 PM
Waning Crescent, 11% visible
METAR YPCC 271530Z AUTO 14022KT //// // BKN024 BKN028 25/20 Q1014

10-Day Weather Forecast

No radar image for this location.
×

Almanac

Astronomy

Sep. 27, 2016 Rise Set
Actual Time
Civil Twilight
Nautical Twilight
Astronomical Twilight
Moon
Length of Visible Light
Length of Day
Tomorrow will be .
, % of the Moon is Illuminated

Today's Extremes

Country Highs Country Lows

Community

WunderPhotos

Upload Photos

1,942,115 photos uploaded!

WunderBlog® & News

Nearby

Air Quality

  Air Quality AQ Index Pollutant
Not available.

Snow Depth

Station Depth Elevation

Earthquake Activity

City Distance Mag. Time & Date
Minimum magnitude displayed is 2.5.

Coastal Water Temperatures

Place Temperature

Stations

Nearby Weather Stations

Station Location Temp. Windchill Dew Point Humidity Wind Precip. Elev Updated Type